Aviation Digital Data Service (ADDS)

Output produced by TAFs form (0023 UTC 27 May 2017)
found at http://www.aviationweather.gov/adds/tafs/
 
METAR text: RJTI 270000Z 14010KT 9999 FEW015 22/19 Q1006
Conditions at: RJTI (TOKYO HELIPORT , JP) observed 0000 UTC 27 May 2017
Temperature: 22.0°C (72°F)
Dewpoint: 19.0°C (66°F) [RH = 83%]
Pressure (altimeter): 29.70 inches Hg (1006.0 mb)
Winds: from the SE (140 degrees) at 12 MPH (10 knots; 5.2 m/s)
Visibility: 6 or more miles (10+ km)
Ceiling: at least 12,000 feet AGL
Clouds: few clouds at 1500 feet AGL
Weather: no significant weather observed at this time